createdAt,value
2018-06-29T00:00:31.420Z,3.50
2018-06-29T00:03:01.237Z,3.43
2018-06-29T00:05:31.088Z,3.43
2018-06-29T00:08:00.865Z,3.77
2018-06-29T00:10:30.708Z,3.83
2018-06-29T00:13:00.523Z,4.23
2018-06-29T00:15:30.340Z,3.60
2018-06-29T00:18:00.169Z,5.67
2018-06-29T00:20:29.940Z,5.13
2018-06-29T00:22:59.812Z,5.40
2018-06-29T00:25:29.616Z,3.97
2018-06-29T00:27:59.416Z,3.63
2018-06-29T00:30:29.268Z,4.13
2018-06-29T00:32:59.092Z,3.70
2018-06-29T00:35:28.855Z,4.03
2018-06-29T00:37:58.734Z,3.70
2018-06-29T00:40:28.551Z,4.40
2018-06-29T00:42:58.363Z,4.67
2018-06-29T00:45:28.245Z,4.23
2018-06-29T00:47:58.014Z,4.90
2018-06-29T00:50:27.851Z,4.50
2018-06-29T00:52:57.675Z,4.57
2018-06-29T00:55:28.518Z,5.73
2018-06-29T00:57:58.311Z,5.93
2018-06-29T01:00:28.128Z,5.87
2018-06-29T01:02:57.908Z,6.73
2018-06-29T01:05:27.728Z,6.93
2018-06-29T01:07:57.581Z,6.17
2018-06-29T01:10:27.400Z,7.20
2018-06-29T01:12:57.187Z,6.93
2018-06-29T01:15:27.030Z,5.97
2018-06-29T01:17:56.836Z,6.23
2018-06-29T01:20:26.615Z,7.47
2018-06-29T01:22:56.558Z,6.20
2018-06-29T01:25:26.370Z,6.80
2018-06-29T01:27:56.184Z,5.67
2018-06-29T01:30:26.000Z,7.50
2018-06-29T01:32:55.804Z,5.83
2018-06-29T01:35:25.553Z,6.17
2018-06-29T01:37:55.309Z,5.13
2018-06-29T01:40:25.148Z,5.27
2018-06-29T01:42:54.980Z,5.00
2018-06-29T01:45:24.804Z,6.33
2018-06-29T01:47:54.668Z,5.40
2018-06-29T01:50:24.453Z,5.30
2018-06-29T01:52:54.224Z,5.93
2018-06-29T01:55:24.029Z,4.73
2018-06-29T01:57:53.832Z,4.53
2018-06-29T02:00:23.649Z,4.70
2018-06-29T02:02:53.447Z,5.00
2018-06-29T02:05:23.265Z,5.37
2018-06-29T02:07:53.084Z,5.00
2018-06-29T02:10:22.953Z,4.70
2018-06-29T02:12:52.731Z,5.40
2018-06-29T02:15:22.588Z,5.20
2018-06-29T02:17:52.396Z,5.40
2018-06-29T02:20:22.204Z,5.10
2018-06-29T02:22:52.025Z,4.87
2018-06-29T02:25:21.893Z,5.07
2018-06-29T02:27:51.732Z,5.13
2018-06-29T02:30:21.604Z,5.83
2018-06-29T02:32:51.384Z,6.03
2018-06-29T02:35:21.203Z,6.10
2018-06-29T02:37:51.024Z,5.77
2018-06-29T02:40:20.856Z,6.27
2018-06-29T02:42:50.713Z,6.30
2018-06-29T02:45:20.584Z,6.10
2018-06-29T02:47:50.397Z,6.03
2018-06-29T02:50:20.224Z,5.73
2018-06-29T02:52:50.000Z,6.27
2018-06-29T02:55:19.909Z,6.70
2018-06-29T02:57:49.736Z,6.10
2018-06-29T03:00:19.523Z,6.10
2018-06-29T03:02:49.333Z,5.63
2018-06-29T03:05:19.188Z,4.87
2018-06-29T03:07:49.010Z,5.60
2018-06-29T03:10:18.797Z,5.30
2018-06-29T03:12:48.604Z,6.00
2018-06-29T03:15:18.436Z,4.17
2018-06-29T03:17:48.199Z,4.10
2018-06-29T03:20:18.008Z,4.23
2018-06-29T03:22:47.816Z,4.27
2018-06-29T03:25:17.671Z,5.83
2018-06-29T03:27:47.428Z,5.00
2018-06-29T03:30:17.268Z,3.70
2018-06-29T03:32:47.140Z,3.87
2018-06-29T03:35:16.935Z,4.97
2018-06-29T03:37:46.764Z,4.53
2018-06-29T03:40:16.653Z,4.30
2018-06-29T03:42:46.399Z,4.33
2018-06-29T03:45:16.219Z,3.87
2018-06-29T03:47:46.053Z,3.50
2018-06-29T03:50:15.880Z,3.47
2018-06-29T03:52:45.660Z,3.77
2018-06-29T03:55:15.468Z,3.90
2018-06-29T03:57:45.227Z,4.17
2018-06-29T04:00:15.053Z,4.20
2018-06-29T04:02:44.846Z,4.20
2018-06-29T04:05:14.628Z,4.43
2018-06-29T04:07:44.436Z,3.93
2018-06-29T04:10:14.238Z,4.93
2018-06-29T04:12:44.020Z,5.17
2018-06-29T04:15:13.908Z,5.13
2018-06-29T04:17:43.688Z,5.73
2018-06-29T04:20:13.507Z,5.10
2018-06-29T04:22:43.352Z,5.87
2018-06-29T04:25:13.280Z,7.27
2018-06-29T04:27:43.085Z,5.97
2018-06-29T04:30:12.984Z,5.10
2018-06-29T04:32:42.832Z,7.57
2018-06-29T04:35:12.640Z,7.87
2018-06-29T04:37:42.464Z,6.30
2018-06-29T04:40:12.288Z,5.57
2018-06-29T04:42:42.045Z,5.53
2018-06-29T04:45:11.940Z,5.47
2018-06-29T04:47:41.720Z,5.43
2018-06-29T04:50:11.593Z,5.50
2018-06-29T04:52:41.399Z,5.30
2018-06-29T04:55:11.206Z,5.10
2018-06-29T04:57:41.328Z,5.27
2018-06-29T05:00:11.180Z,4.83
2018-06-29T05:02:41.056Z,4.30
2018-06-29T05:05:10.853Z,5.27
2018-06-29T05:07:40.700Z,5.40
2018-06-29T05:10:10.552Z,4.40
2018-06-29T05:12:40.382Z,4.47
2018-06-29T05:15:10.215Z,4.27
2018-06-29T05:17:40.048Z,4.80
2018-06-29T05:20:09.902Z,4.13
2018-06-29T05:22:39.725Z,4.23
2018-06-29T05:25:09.688Z,5.73
2018-06-29T05:27:39.516Z,4.43
2018-06-29T05:30:10.027Z,5.37
2018-06-29T05:32:39.867Z,3.40
2018-06-29T05:35:09.817Z,3.40
2018-06-29T05:37:39.640Z,4.10
2018-06-29T05:40:09.504Z,3.40
2018-06-29T05:42:39.389Z,3.27
2018-06-29T05:45:09.521Z,3.00
2018-06-29T05:47:39.377Z,2.67
2018-06-29T05:50:09.352Z,2.80
2018-06-29T05:52:39.357Z,3.03
2018-06-29T05:55:09.232Z,2.80
2018-06-29T05:57:39.169Z,2.40
2018-06-29T06:00:09.131Z,2.77
2018-06-29T06:02:39.028Z,2.37
2018-06-29T06:05:08.900Z,2.70
2018-06-29T06:07:38.834Z,2.50
2018-06-29T06:10:08.815Z,5.03
2018-06-29T06:12:38.621Z,2.60
2018-06-29T06:15:08.508Z,3.47
2018-06-29T06:17:38.387Z,2.30
2018-06-29T06:20:14.053Z,3.43
2018-06-29T06:22:43.932Z,2.33
2018-06-29T06:25:13.908Z,2.10
2018-06-29T06:27:43.784Z,3.07
2018-06-29T06:30:13.640Z,3.80
2018-06-29T06:32:43.587Z,2.33
2018-06-29T06:35:13.536Z,2.23
2018-06-29T06:37:43.460Z,2.10
2018-06-29T06:40:13.337Z,2.17
2018-06-29T06:42:43.172Z,1.80
2018-06-29T06:45:13.066Z,2.10
2018-06-29T06:47:43.015Z,2.50
2018-06-29T06:50:12.919Z,2.43
2018-06-29T06:52:42.861Z,2.93
2018-06-29T06:55:12.720Z,2.30
2018-06-29T06:57:42.596Z,2.90
2018-06-29T07:00:12.512Z,3.30
2018-06-29T07:02:42.349Z,2.70
2018-06-29T07:05:12.284Z,3.77
2018-06-29T07:07:42.180Z,3.30
2018-06-29T07:10:12.169Z,4.17
2018-06-29T07:12:42.063Z,4.03
2018-06-29T07:15:11.924Z,4.67
2018-06-29T07:17:41.764Z,4.40
2018-06-29T07:20:11.561Z,4.60
2018-06-29T07:22:41.384Z,4.70
2018-06-29T07:25:11.243Z,4.23
2018-06-29T07:27:41.097Z,4.00
2018-06-29T07:30:11.008Z,3.93
2018-06-29T07:32:40.963Z,3.60
2018-06-29T07:35:10.828Z,2.63
2018-06-29T07:37:40.770Z,2.67
2018-06-29T07:40:10.642Z,2.33
2018-06-29T07:42:40.586Z,2.60
2018-06-29T07:45:10.529Z,2.63
2018-06-29T07:47:40.471Z,2.50
2018-06-29T07:50:10.303Z,2.63
2018-06-29T07:52:40.141Z,2.37
2018-06-29T07:55:10.209Z,2.57
2018-06-29T07:57:40.052Z,2.60
2018-06-29T08:00:10.056Z,2.80
2018-06-29T08:02:39.961Z,2.60
2018-06-29T08:05:09.873Z,2.50
2018-06-29T08:07:39.701Z,2.23
2018-06-29T08:10:09.586Z,2.47
2018-06-29T08:12:39.476Z,2.60
2018-06-29T08:15:09.368Z,2.30
2018-06-29T08:17:39.312Z,2.03
2018-06-29T08:20:09.209Z,2.80
2018-06-29T08:22:39.129Z,2.13
2018-06-29T08:25:11.628Z,2.70
2018-06-29T08:27:41.623Z,3.30
2018-06-29T08:30:12.444Z,3.03
2018-06-29T08:32:42.443Z,2.20
2018-06-29T08:35:12.436Z,2.63
2018-06-29T08:37:42.446Z,2.40
2018-06-29T08:40:12.272Z,3.60
2018-06-29T08:42:42.139Z,2.30
2018-06-29T08:45:12.017Z,3.07
2018-06-29T08:47:41.979Z,2.60
2018-06-29T08:50:12.072Z,3.00
2018-06-29T08:52:42.104Z,3.00
2018-06-29T08:55:12.112Z,2.57
2018-06-29T08:57:42.033Z,2.70
2018-06-29T09:00:12.063Z,3.00
2018-06-29T09:02:41.941Z,2.90
2018-06-29T09:05:11.787Z,2.73
2018-06-29T09:07:41.665Z,2.87
2018-06-29T09:10:11.602Z,3.00
2018-06-29T09:12:41.433Z,2.60
2018-06-29T09:15:11.248Z,4.27
2018-06-29T09:17:41.095Z,3.20
2018-06-29T09:20:10.951Z,3.10
2018-06-29T09:22:40.737Z,4.93
2018-06-29T09:25:10.629Z,2.60
2018-06-29T09:27:40.519Z,4.27
2018-06-29T09:30:10.357Z,3.30
2018-06-29T09:32:40.284Z,2.73
2018-06-29T09:35:10.136Z,2.80
2018-06-29T09:37:40.006Z,3.30
2018-06-29T09:40:09.940Z,2.77
2018-06-29T09:42:39.940Z,2.97
2018-06-29T09:45:09.793Z,4.83
2018-06-29T09:47:39.630Z,3.30
2018-06-29T09:50:09.460Z,4.23
2018-06-29T09:52:39.304Z,4.30
2018-06-29T09:55:09.102Z,3.50
2018-06-29T09:57:38.936Z,3.43
2018-06-29T10:00:10.044Z,3.93
2018-06-29T10:02:39.911Z,4.00
2018-06-29T10:05:09.712Z,3.00
2018-06-29T10:07:39.532Z,4.43
2018-06-29T10:10:09.483Z,3.20
2018-06-29T10:12:39.341Z,4.73
2018-06-29T10:15:09.154Z,5.13
2018-06-29T10:17:38.977Z,3.73
2018-06-29T10:20:08.900Z,3.07
2018-06-29T10:22:38.679Z,3.10
2018-06-29T10:25:08.544Z,3.40
2018-06-29T10:27:38.349Z,3.43
2018-06-29T10:30:08.903Z,3.30
2018-06-29T10:32:39.251Z,4.07
2018-06-29T10:35:09.292Z,3.83
2018-06-29T10:37:39.221Z,3.37
2018-06-29T10:40:09.078Z,3.60
2018-06-29T10:42:38.888Z,3.93
2018-06-29T10:45:08.807Z,3.67
2018-06-29T10:47:38.684Z,3.10
2018-06-29T10:50:08.452Z,3.40
2018-06-29T10:52:38.309Z,3.60
2018-06-29T10:55:08.156Z,4.03
2018-06-29T10:57:38.095Z,3.73
2018-06-29T11:00:08.254Z,5.63
2018-06-29T11:02:38.107Z,3.90
2018-06-29T11:05:07.888Z,6.00
2018-06-29T11:07:37.734Z,4.07
2018-06-29T11:10:08.403Z,4.37
2018-06-29T11:12:38.355Z,5.00
2018-06-29T11:15:08.249Z,5.50
2018-06-29T11:17:38.076Z,5.50
2018-06-29T11:20:07.904Z,5.37
2018-06-29T11:22:37.833Z,5.03
2018-06-29T11:25:07.665Z,4.70
2018-06-29T11:27:37.662Z,4.77
2018-06-29T11:30:07.676Z,5.70
2018-06-29T11:32:37.526Z,6.20
2018-06-29T11:35:07.507Z,5.70
2018-06-29T11:37:37.348Z,5.67
2018-06-29T11:40:07.458Z,6.73
2018-06-29T11:42:37.407Z,6.07
2018-06-29T11:45:07.391Z,6.97
2018-06-29T11:47:37.366Z,6.30
2018-06-29T11:50:07.253Z,7.13
2018-06-29T11:52:37.188Z,7.00
2018-06-29T11:55:07.029Z,7.03
2018-06-29T11:57:36.887Z,6.47
2018-06-29T12:00:07.040Z,8.60
2018-06-29T12:02:37.097Z,7.43
2018-06-29T12:05:07.131Z,8.13
2018-06-29T12:07:36.983Z,7.63
2018-06-29T12:10:06.858Z,8.70
2018-06-29T12:12:36.720Z,8.63
2018-06-29T12:15:07.560Z,7.93
2018-06-29T12:17:37.515Z,9.00
2018-06-29T12:20:07.486Z,8.50
2018-06-29T12:22:37.374Z,8.97
2018-06-29T12:25:07.284Z,8.17
2018-06-29T12:27:37.217Z,9.07
2018-06-29T12:30:07.192Z,9.27
2018-06-29T12:32:37.107Z,10.57
2018-06-29T12:35:07.071Z,10.23
2018-06-29T12:37:37.036Z,9.17
2018-06-29T12:40:06.972Z,10.47
2018-06-29T12:42:37.128Z,9.17
2018-06-29T12:45:07.004Z,9.47
2018-06-29T12:47:36.904Z,9.13
2018-06-29T12:50:06.978Z,9.50
2018-06-29T12:52:36.843Z,9.30
2018-06-29T12:55:06.783Z,9.00
2018-06-29T12:57:36.696Z,10.20
2018-06-29T13:00:07.024Z,9.93
2018-06-29T13:02:36.860Z,10.37
2018-06-29T13:05:06.840Z,9.70
2018-06-29T13:07:36.723Z,10.23
2018-06-29T13:10:06.672Z,8.90
2018-06-29T13:12:36.653Z,8.30
2018-06-29T13:15:07.097Z,7.47
2018-06-29T13:17:36.979Z,6.73
2018-06-29T13:20:07.421Z,6.97
2018-06-29T13:22:37.271Z,7.60
2018-06-29T13:25:07.220Z,6.17
2018-06-29T13:27:37.014Z,6.30
2018-06-29T13:30:07.080Z,7.47
2018-06-29T13:32:36.960Z,6.97
2018-06-29T13:35:06.909Z,6.63
2018-06-29T13:37:36.778Z,7.47
2018-06-29T13:40:06.885Z,7.40
2018-06-29T13:42:36.721Z,7.50
2018-06-29T13:45:06.669Z,7.47
2018-06-29T13:47:36.609Z,7.03
2018-06-29T13:50:06.625Z,7.47
2018-06-29T13:52:36.483Z,8.03
2018-06-29T13:55:06.404Z,6.03
2018-06-29T13:57:36.184Z,5.50
2018-06-29T14:00:06.692Z,6.17
2018-06-29T14:02:36.685Z,7.40
2018-06-29T14:05:06.549Z,6.80
2018-06-29T14:07:36.372Z,5.90
2018-06-29T14:10:06.236Z,8.87
2018-06-29T14:12:37.076Z,6.60
2018-06-29T14:15:07.005Z,5.40
2018-06-29T14:17:36.913Z,6.00
2018-06-29T14:20:06.961Z,5.93
2018-06-29T14:22:36.790Z,5.33
2018-06-29T14:25:06.756Z,4.90
2018-06-29T14:27:36.665Z,6.20
2018-06-29T14:30:06.808Z,4.60
2018-06-29T14:32:36.848Z,4.93
2018-06-29T14:35:06.901Z,6.23
2018-06-29T14:37:36.788Z,6.03
2018-06-29T14:40:06.710Z,5.10
2018-06-29T14:42:36.540Z,5.43
2018-06-29T14:45:06.516Z,6.50
2018-06-29T14:47:36.386Z,6.83
2018-06-29T14:50:06.185Z,7.27
2018-06-29T14:52:36.121Z,7.50
2018-06-29T14:55:06.209Z,7.87
2018-06-29T14:57:36.028Z,9.03
2018-06-29T15:00:08.112Z,8.00
2018-06-29T15:02:38.100Z,8.33
2018-06-29T15:05:07.920Z,9.80
2018-06-29T15:07:37.732Z,6.83
2018-06-29T15:10:07.708Z,6.03
2018-06-29T15:12:37.508Z,6.83
2018-06-29T15:15:07.332Z,5.60
2018-06-29T15:17:37.229Z,6.93
2018-06-29T15:20:08.020Z,6.23
2018-06-29T15:22:38.373Z,6.30
2018-06-29T15:25:08.300Z,5.37
2018-06-29T15:27:38.141Z,6.33
2018-06-29T15:30:08.148Z,6.17
2018-06-29T15:32:37.992Z,6.43
2018-06-29T15:35:07.800Z,6.97
2018-06-29T15:37:37.658Z,6.73
2018-06-29T15:40:07.480Z,7.43
2018-06-29T15:42:37.296Z,6.93
2018-06-29T15:45:07.508Z,7.67
2018-06-29T15:47:37.313Z,8.63
2018-06-29T15:50:07.280Z,7.73
2018-06-29T15:52:37.083Z,8.97
2018-06-29T15:55:06.991Z,8.30
2018-06-29T15:57:36.757Z,9.17
2018-06-29T16:00:08.722Z,8.73
2018-06-29T16:02:38.543Z,8.87
2018-06-29T16:05:08.436Z,9.60
2018-06-29T16:07:38.265Z,10.63
2018-06-29T16:10:08.141Z,9.47
2018-06-29T16:12:37.957Z,9.43
2018-06-29T16:15:07.812Z,10.23
2018-06-29T16:17:37.680Z,10.47
2018-06-29T16:20:07.500Z,9.27
2018-06-29T16:22:37.348Z,9.10
2018-06-29T16:25:07.150Z,9.30
2018-06-29T16:27:36.967Z,9.87
2018-06-29T16:30:07.331Z,10.20
2018-06-29T16:32:37.208Z,10.13
2018-06-29T16:35:07.132Z,10.93
2018-06-29T16:37:37.095Z,10.70
2018-06-29T16:40:06.864Z,11.77
2018-06-29T16:42:36.724Z,10.27
2018-06-29T16:45:06.753Z,10.77
2018-06-29T16:47:36.632Z,10.67
2018-06-29T16:50:06.680Z,10.33
2018-06-29T16:52:36.481Z,9.97
2018-06-29T16:55:06.744Z,10.20
2018-06-29T16:57:36.554Z,9.47
2018-06-29T17:00:07.214Z,9.43
2018-06-29T17:02:37.059Z,9.47
2018-06-29T17:05:07.005Z,9.63
2018-06-29T17:07:36.777Z,8.90
2018-06-29T17:10:06.890Z,8.73
2018-06-29T17:12:36.684Z,8.60
2018-06-29T17:15:06.920Z,9.37
2018-06-29T17:17:36.710Z,9.57
2018-06-29T17:20:06.606Z,9.30
2018-06-29T17:22:36.439Z,9.00
2018-06-29T17:25:06.517Z,9.00
2018-06-29T17:27:36.344Z,9.13
2018-06-29T17:30:06.640Z,10.07
2018-06-29T17:32:36.869Z,10.37
2018-06-29T17:35:06.832Z,10.57
2018-06-29T17:37:36.764Z,10.57
2018-06-29T17:40:06.656Z,10.33
2018-06-29T17:42:36.491Z,11.23
2018-06-29T17:45:06.365Z,9.20
2018-06-29T17:47:36.260Z,10.07
2018-06-29T17:50:06.118Z,10.30
2018-06-29T17:52:35.965Z,10.60
2018-06-29T17:55:05.973Z,11.33
2018-06-29T17:57:35.801Z,11.17
2018-06-29T18:00:06.200Z,11.53
2018-06-29T18:02:36.093Z,10.57
2018-06-29T18:05:06.159Z,10.40
2018-06-29T18:07:35.963Z,11.47
2018-06-29T18:10:05.910Z,11.50
2018-06-29T18:12:35.765Z,11.20
2018-06-29T18:15:05.644Z,11.97
2018-06-29T18:17:35.492Z,12.10
2018-06-29T18:20:05.444Z,11.07
2018-06-29T18:22:35.278Z,11.00
2018-06-29T18:25:05.277Z,11.30
2018-06-29T18:27:35.100Z,11.13
2018-06-29T18:30:05.432Z,11.17
2018-06-29T18:32:35.302Z,10.73
2018-06-29T18:35:05.260Z,9.90
2018-06-29T18:37:35.064Z,9.43
2018-06-29T18:40:05.116Z,10.30
2018-06-29T18:42:34.901Z,10.57
2018-06-29T18:45:04.795Z,9.83
2018-06-29T18:47:34.640Z,8.53
2018-06-29T18:50:04.760Z,8.50
2018-06-29T18:52:34.596Z,10.33
2018-06-29T18:55:04.559Z,8.27
2018-06-29T18:57:34.472Z,7.90
2018-06-29T19:00:04.392Z,8.00
2018-06-29T19:02:34.244Z,8.93
2018-06-29T19:05:04.149Z,8.97
2018-06-29T19:07:33.951Z,8.07
2018-06-29T19:10:03.724Z,8.60
2018-06-29T19:12:33.524Z,9.27
2018-06-29T19:15:03.351Z,9.00
2018-06-29T19:17:33.253Z,9.30
2018-06-29T19:20:03.041Z,10.93
2018-06-29T19:22:32.868Z,10.50
2018-06-29T19:25:02.812Z,10.03
2018-06-29T19:27:32.620Z,10.37
2018-06-29T19:30:02.450Z,12.43
2018-06-29T19:32:32.323Z,10.70
2018-06-29T19:35:02.206Z,10.67
2018-06-29T19:37:32.011Z,9.93
2018-06-29T19:40:01.882Z,9.63
2018-06-29T19:42:31.679Z,9.97
2018-06-29T19:45:01.474Z,9.33
2018-06-29T19:47:31.300Z,10.27
2018-06-29T19:50:01.119Z,9.20
2018-06-29T19:52:30.929Z,10.40
2018-06-29T19:55:00.775Z,9.50
2018-06-29T19:57:30.570Z,9.77
2018-06-29T20:00:00.455Z,9.37
2018-06-29T20:02:30.224Z,9.10
2018-06-29T20:05:00.087Z,9.83
2018-06-29T20:07:29.924Z,9.33
2018-06-29T20:09:59.721Z,8.73
2018-06-29T20:12:29.574Z,9.03
2018-06-29T20:14:59.436Z,8.87
2018-06-29T20:17:29.213Z,9.00
2018-06-29T20:19:59.061Z,9.00
2018-06-29T20:22:29.000Z,8.73
2018-06-29T20:24:58.828Z,8.73
2018-06-29T20:27:28.680Z,8.37
2018-06-29T20:29:58.493Z,9.13
2018-06-29T20:32:28.316Z,8.57
2018-06-29T20:34:58.128Z,9.13
2018-06-29T20:37:27.976Z,10.87
2018-06-29T20:39:57.888Z,7.97
2018-06-29T20:42:27.719Z,9.23
2018-06-29T20:44:57.580Z,8.60
2018-06-29T20:47:27.441Z,8.07
2018-06-29T20:49:57.316Z,9.37
2018-06-29T20:52:27.128Z,8.43
2018-06-29T20:54:56.951Z,9.50
2018-06-29T20:57:26.775Z,8.93
2018-06-29T20:59:56.592Z,8.87
2018-06-29T21:02:26.408Z,9.47
2018-06-29T21:04:56.237Z,8.73
2018-06-29T21:07:26.059Z,9.13
2018-06-29T21:09:55.902Z,10.00
2018-06-29T21:12:25.780Z,7.80
2018-06-29T21:14:55.580Z,6.97
2018-06-29T21:17:25.448Z,7.60
2018-06-29T21:19:55.254Z,8.07
2018-06-29T21:22:25.086Z,8.50
2018-06-29T21:24:54.920Z,7.40
2018-06-29T21:27:24.744Z,7.60
2018-06-29T21:29:54.593Z,7.87
2018-06-29T21:32:24.384Z,8.33
2018-06-29T21:34:54.188Z,7.67
2018-06-29T21:37:23.992Z,7.47
2018-06-29T21:39:53.821Z,8.00
2018-06-29T21:42:23.651Z,8.10
2018-06-29T21:44:53.471Z,8.73
2018-06-29T21:47:23.273Z,8.03
2018-06-29T21:49:53.056Z,8.27
2018-06-29T21:52:22.873Z,8.60
2018-06-29T21:54:52.650Z,8.07
2018-06-29T21:57:22.476Z,8.67
2018-06-29T21:59:52.248Z,8.90
2018-06-29T22:02:22.064Z,10.30
2018-06-29T22:04:51.901Z,10.07
2018-06-29T22:07:21.748Z,9.17
2018-06-29T22:09:51.536Z,10.33
2018-06-29T22:12:21.392Z,9.30
2018-06-29T22:14:51.264Z,9.47
2018-06-29T22:17:21.058Z,9.57
2018-06-29T22:19:50.875Z,10.67
2018-06-29T22:22:20.662Z,9.90
2018-06-29T22:24:50.478Z,9.77
2018-06-29T22:27:20.314Z,8.73
2018-06-29T22:29:50.168Z,8.50
2018-06-29T22:32:19.984Z,8.77
2018-06-29T22:34:49.850Z,8.60
2018-06-29T22:37:19.657Z,8.17
2018-06-29T22:39:49.468Z,8.37
2018-06-29T22:42:19.300Z,8.07
2018-06-29T22:44:49.049Z,8.70
2018-06-29T22:47:18.910Z,8.30
2018-06-29T22:49:48.672Z,8.63
2018-06-29T22:52:18.475Z,8.80
2018-06-29T22:54:48.378Z,8.37
2018-06-29T22:57:18.226Z,8.17
2018-06-29T22:59:47.996Z,9.10
2018-06-29T23:02:17.832Z,8.13
2018-06-29T23:04:47.698Z,8.43
2018-06-29T23:07:17.619Z,8.53
2018-06-29T23:09:47.424Z,8.17
2018-06-29T23:12:17.285Z,7.90
2018-06-29T23:14:47.140Z,9.27
2018-06-29T23:17:17.001Z,8.17
2018-06-29T23:19:46.840Z,7.47
2018-06-29T23:22:16.772Z,7.93
2018-06-29T23:24:46.580Z,7.73
2018-06-29T23:27:16.415Z,8.27
2018-06-29T23:29:46.248Z,8.10
2018-06-29T23:32:16.064Z,7.87
2018-06-29T23:34:45.904Z,7.13
2018-06-29T23:37:15.744Z,6.60
2018-06-29T23:39:45.608Z,6.33
2018-06-29T23:42:15.503Z,7.13
2018-06-29T23:44:45.297Z,7.00
2018-06-29T23:47:15.144Z,11.43
2018-06-29T23:49:44.984Z,7.17
2018-06-29T23:52:14.853Z,6.67
2018-06-29T23:54:44.718Z,6.40
2018-06-29T23:57:14.529Z,6.57
2018-06-29T23:59:44.412Z,6.80
